createdAt,value
2018-03-02T00:00:01.927Z,8.75
2018-03-02T00:02:29.132Z,6.90
2018-03-02T00:04:57.117Z,7.35
2018-03-02T00:07:24.674Z,9.70
2018-03-02T00:09:52.365Z,8.70
2018-03-02T00:12:20.160Z,8.88
2018-03-02T00:14:47.075Z,8.98
2018-03-02T00:17:14.002Z,9.20
2018-03-02T00:19:41.483Z,8.80
2018-03-02T00:22:08.721Z,9.00
2018-03-02T00:24:35.741Z,7.40
2018-03-02T00:27:03.322Z,8.70
2018-03-02T00:29:30.343Z,10.02
2018-03-02T00:31:57.230Z,9.32
2018-03-02T00:34:24.270Z,9.25
2018-03-02T00:36:51.246Z,9.20
2018-03-02T00:39:18.784Z,9.02
2018-03-02T00:41:46.154Z,7.80
2018-03-02T00:44:13.903Z,8.93
2018-03-02T00:46:42.438Z,9.05
2018-03-02T00:49:11.039Z,9.20
2018-03-02T00:51:42.473Z,9.80
2018-03-02T00:54:09.355Z,8.85
2018-03-02T00:56:36.608Z,9.40
2018-03-02T00:59:03.803Z,11.00
2018-03-02T01:01:30.602Z,8.80
2018-03-02T01:03:57.739Z,9.10
2018-03-02T01:06:25.943Z,10.25
2018-03-02T01:08:52.957Z,9.65
2018-03-02T01:11:19.856Z,9.10
2018-03-02T01:13:47.105Z,9.95
2018-03-02T01:16:13.885Z,9.45
2018-03-02T01:18:40.994Z,8.18
2018-03-02T01:21:07.824Z,8.65
2018-03-02T01:23:36.169Z,9.15
2018-03-02T01:26:03.537Z,8.77
2018-03-02T01:28:31.323Z,10.05
2018-03-02T01:31:02.726Z,10.82
2018-03-02T01:33:29.895Z,7.10
2018-03-02T01:36:01.627Z,9.60
2018-03-02T01:38:28.403Z,13.18
2018-03-02T01:40:55.497Z,7.62
2018-03-02T01:43:22.382Z,10.77
2018-03-02T01:45:49.380Z,9.05
2018-03-02T01:48:16.360Z,10.10
2018-03-02T01:50:43.495Z,11.23
2018-03-02T01:53:10.436Z,9.65
2018-03-02T01:55:37.292Z,11.48
2018-03-02T01:58:04.244Z,11.35
2018-03-02T02:00:31.072Z,9.73
2018-03-02T02:02:58.561Z,9.45
2018-03-02T02:05:25.492Z,11.40
2018-03-02T02:07:52.336Z,9.90
2018-03-02T02:10:20.150Z,8.63
2018-03-02T02:12:47.090Z,9.45
2018-03-02T02:15:14.303Z,10.82
2018-03-02T02:17:41.088Z,9.32
2018-03-02T02:20:11.280Z,11.90
2018-03-02T02:22:38.291Z,8.40
2018-03-02T02:25:05.858Z,10.05
2018-03-02T02:27:33.652Z,10.50
2018-03-02T02:30:01.464Z,11.07
2018-03-02T02:32:28.416Z,11.73
2018-03-02T02:34:55.558Z,11.60
2018-03-02T02:37:22.417Z,10.75
2018-03-02T02:39:49.294Z,13.02
2018-03-02T02:42:20.264Z,11.43
2018-03-02T02:44:48.489Z,10.60
2018-03-02T02:47:16.222Z,10.70
2018-03-02T02:49:43.025Z,11.00
2018-03-02T02:52:09.964Z,10.25
2018-03-02T02:54:39.153Z,10.88
2018-03-02T02:57:06.007Z,13.07
2018-03-02T02:59:34.314Z,13.90
2018-03-02T03:02:02.026Z,11.77
2018-03-02T03:04:29.521Z,11.50
2018-03-02T03:06:58.426Z,13.25
2018-03-02T03:09:25.488Z,13.32
2018-03-02T03:11:53.254Z,11.57
2018-03-02T03:14:20.722Z,13.82
2018-03-02T03:16:51.938Z,13.10
2018-03-02T03:19:19.790Z,12.88
2018-03-02T03:21:46.739Z,9.77
2018-03-02T03:24:17.414Z,11.82
2018-03-02T03:26:44.449Z,12.90
2018-03-02T03:29:15.246Z,10.13
2018-03-02T03:31:42.209Z,10.32
2018-03-02T03:34:10.339Z,12.23
2018-03-02T03:36:37.321Z,12.32
2018-03-02T03:39:04.689Z,11.93
2018-03-02T03:41:31.673Z,12.20
2018-03-02T03:43:59.831Z,12.43
2018-03-02T03:46:26.759Z,12.98
2018-03-02T03:48:53.710Z,12.93
2018-03-02T03:51:20.642Z,10.00
2018-03-02T03:53:48.650Z,12.50
2018-03-02T03:56:19.575Z,11.60
2018-03-02T03:58:48.979Z,11.00
2018-03-02T04:01:16.345Z,12.13
2018-03-02T04:03:44.075Z,11.68
2018-03-02T04:06:12.016Z,11.25
2018-03-02T04:08:43.413Z,13.82
2018-03-02T04:11:10.508Z,12.82
2018-03-02T04:13:37.806Z,13.40
2018-03-02T04:16:06.570Z,13.65
2018-03-02T04:18:33.454Z,13.35
2018-03-02T04:21:00.645Z,10.93
2018-03-02T04:23:28.434Z,9.30
2018-03-02T04:25:55.985Z,13.85
2018-03-02T04:28:22.943Z,11.63
2018-03-02T04:30:51.986Z,11.20
2018-03-02T04:33:19.567Z,14.95
2018-03-02T04:35:46.512Z,11.90
2018-03-02T04:38:15.340Z,11.90
2018-03-02T04:40:42.517Z,12.75
2018-03-02T04:43:09.735Z,9.90
2018-03-02T04:45:40.557Z,12.65
2018-03-02T04:48:07.458Z,13.43
2018-03-02T04:50:34.422Z,12.15
2018-03-02T04:53:02.274Z,12.70
2018-03-02T04:55:30.460Z,13.35
2018-03-02T04:57:58.435Z,11.90
2018-03-02T05:00:25.577Z,11.07
2018-03-02T05:02:52.798Z,13.70
2018-03-02T05:05:19.923Z,11.20
2018-03-02T05:07:47.698Z,14.50
2018-03-02T05:10:20.924Z,13.98
2018-03-02T05:12:48.046Z,10.65
2018-03-02T05:15:15.187Z,13.20
2018-03-02T05:17:42.354Z,13.90
2018-03-02T05:20:09.970Z,14.15
2018-03-02T05:22:38.024Z,13.70
2018-03-02T05:25:09.278Z,12.75
2018-03-02T05:27:40.539Z,14.15
2018-03-02T05:30:08.464Z,12.90
2018-03-02T05:32:35.425Z,9.65
2018-03-02T05:35:06.025Z,12.77
2018-03-02T05:37:39.170Z,13.88
2018-03-02T05:40:10.700Z,11.48
2018-03-02T05:42:38.111Z,9.15
2018-03-02T05:45:05.802Z,14.15
2018-03-02T05:47:33.410Z,9.98
2018-03-02T05:50:00.478Z,14.10
2018-03-02T05:52:27.352Z,12.65
2018-03-02T05:54:55.773Z,12.35
2018-03-02T05:57:22.972Z,13.27
2018-03-02T05:59:50.217Z,13.77
2018-03-02T06:02:17.080Z,13.93
2018-03-02T06:04:48.330Z,12.23
2018-03-02T06:07:15.165Z,14.75
2018-03-02T06:09:42.865Z,15.60
2018-03-02T06:12:10.901Z,15.73
2018-03-02T06:14:40.329Z,14.48
2018-03-02T06:17:07.243Z,15.32
2018-03-02T06:19:35.333Z,15.70
2018-03-02T06:22:02.779Z,14.55
2018-03-02T06:24:31.190Z,15.20
2018-03-02T06:26:58.807Z,12.63
2018-03-02T06:29:25.787Z,9.25
2018-03-02T06:31:52.892Z,14.30
2018-03-02T06:34:19.698Z,15.77
2018-03-02T06:36:46.750Z,15.98
2018-03-02T06:39:15.133Z,16.55
2018-03-02T06:41:42.232Z,15.10
2018-03-02T06:44:09.305Z,13.43
2018-03-02T06:46:38.077Z,15.32
2018-03-02T06:49:05.140Z,12.60
2018-03-02T06:51:32.419Z,14.45
2018-03-02T06:53:59.538Z,13.82
2018-03-02T06:56:26.803Z,14.55
2018-03-02T06:58:53.928Z,16.35
2018-03-02T07:01:20.897Z,13.27
2018-03-02T07:03:49.651Z,15.80
2018-03-02T07:06:16.491Z,10.40
2018-03-02T07:08:43.303Z,14.48
2018-03-02T07:11:09.997Z,15.60
2018-03-02T07:13:36.801Z,17.98
2018-03-02T07:16:03.636Z,13.52
2018-03-02T07:18:30.588Z,13.73
2018-03-02T07:20:57.468Z,16.83
2018-03-02T07:23:24.261Z,15.65
2018-03-02T07:25:51.250Z,16.40
2018-03-02T07:28:18.130Z,15.38
2018-03-02T07:30:45.151Z,14.32
2018-03-02T07:33:11.888Z,16.62
2018-03-02T07:35:38.824Z,14.50
2018-03-02T07:38:05.802Z,17.70
2018-03-02T07:40:32.586Z,15.65
2018-03-02T07:42:59.315Z,16.37
2018-03-02T07:45:26.248Z,17.77
2018-03-02T07:47:53.134Z,13.52
2018-03-02T07:50:19.970Z,16.40
2018-03-02T07:52:46.721Z,17.08
2018-03-02T07:55:13.700Z,13.90
2018-03-02T07:57:40.604Z,17.45
2018-03-02T08:00:07.743Z,16.95
2018-03-02T08:02:34.696Z,19.87
2018-03-02T08:05:01.850Z,19.23
2018-03-02T08:07:28.508Z,19.37
2018-03-02T08:09:55.164Z,18.37
2018-03-02T08:12:21.827Z,16.15
2018-03-02T08:14:48.509Z,19.65
2018-03-02T08:17:15.146Z,18.15
2018-03-02T08:19:41.828Z,17.62
2018-03-02T08:22:08.488Z,17.15
2018-03-02T08:24:35.179Z,16.50
2018-03-02T08:27:01.837Z,19.62
2018-03-02T08:29:28.470Z,16.48
2018-03-02T08:31:55.136Z,20.83
2018-03-02T08:34:21.760Z,20.60
2018-03-02T08:36:48.490Z,20.00
2018-03-02T08:39:15.137Z,19.08
2018-03-02T08:41:41.792Z,20.45
2018-03-02T08:44:08.421Z,20.55
2018-03-02T08:46:35.098Z,22.45
2018-03-02T08:49:01.787Z,22.20
2018-03-02T08:51:28.428Z,23.10
2018-03-02T08:53:55.066Z,23.45
2018-03-02T08:56:21.719Z,22.05
2018-03-02T08:58:48.363Z,23.73
2018-03-02T09:01:14.983Z,23.02
2018-03-02T09:03:41.682Z,23.15
2018-03-02T09:06:08.315Z,23.85
2018-03-02T09:08:35.040Z,21.25
2018-03-02T09:11:01.700Z,22.55
2018-03-02T09:13:28.377Z,19.50
2018-03-02T09:15:55.027Z,19.40
2018-03-02T09:18:21.699Z,19.85
2018-03-02T09:20:48.297Z,20.40
2018-03-02T09:23:14.916Z,21.02
2018-03-02T09:25:41.564Z,22.70
2018-03-02T09:28:12.519Z,21.87
2018-03-02T09:30:39.220Z,22.05
2018-03-02T09:33:05.892Z,25.23
2018-03-02T09:35:32.713Z,21.30
2018-03-02T09:37:59.328Z,21.80
2018-03-02T09:40:26.017Z,21.85
2018-03-02T09:42:52.701Z,21.08
2018-03-02T09:45:19.328Z,23.70
2018-03-02T09:47:45.967Z,22.17
2018-03-02T09:50:12.667Z,22.35
2018-03-02T09:52:39.292Z,24.50
2018-03-02T09:55:06.015Z,22.73
2018-03-02T09:57:32.664Z,23.05
2018-03-02T09:59:59.306Z,22.35
2018-03-02T10:02:26.030Z,23.02
2018-03-02T10:04:52.671Z,26.70
2018-03-02T10:07:19.315Z,27.23
2018-03-02T10:09:46.055Z,26.73
2018-03-02T10:12:12.790Z,26.45
2018-03-02T10:14:39.429Z,28.27
2018-03-02T10:17:06.269Z,28.17
2018-03-02T10:19:32.915Z,29.10
2018-03-02T10:21:59.594Z,29.87
2018-03-02T10:24:26.290Z,31.70
2018-03-02T10:26:53.684Z,30.83
2018-03-02T10:29:20.363Z,30.65
2018-03-02T10:31:47.951Z,28.90
2018-03-02T10:34:14.604Z,28.27
2018-03-02T10:36:41.323Z,29.33
2018-03-02T10:39:08.019Z,28.08
2018-03-02T10:41:34.722Z,25.08
2018-03-02T10:44:01.332Z,23.98
2018-03-02T10:46:27.945Z,23.38
2018-03-02T10:48:54.708Z,22.40
2018-03-02T10:51:25.989Z,22.65
2018-03-02T10:53:59.226Z,23.75
2018-03-02T10:56:26.979Z,21.90
2018-03-02T10:58:53.913Z,22.65
2018-03-02T11:01:26.366Z,19.77
2018-03-02T11:04:00.270Z,19.02
2018-03-02T11:06:31.419Z,17.92
2018-03-02T11:08:58.812Z,22.05
2018-03-02T11:11:35.254Z,20.70
2018-03-02T11:14:02.008Z,18.45
2018-03-02T11:16:35.067Z,20.17
2018-03-02T11:19:05.959Z,20.90
2018-03-02T11:21:33.828Z,20.50
2018-03-02T11:24:01.097Z,19.70
2018-03-02T11:26:28.674Z,17.83
2018-03-02T11:28:55.543Z,19.17
2018-03-02T11:31:26.255Z,20.25
2018-03-02T11:33:53.031Z,19.40
2018-03-02T11:36:20.688Z,19.20
2018-03-02T11:38:47.587Z,23.10
2018-03-02T11:41:14.297Z,18.33
2018-03-02T11:43:41.495Z,20.75
2018-03-02T11:46:08.147Z,18.87
2018-03-02T11:48:43.458Z,19.30
2018-03-02T11:51:10.279Z,19.87
2018-03-02T11:53:36.969Z,18.90
2018-03-02T11:56:04.213Z,19.50
2018-03-02T11:58:31.106Z,20.30
2018-03-02T12:00:58.959Z,20.40
2018-03-02T12:03:26.566Z,22.35
2018-03-02T12:05:53.453Z,21.40
2018-03-02T12:08:25.793Z,21.08
2018-03-02T12:10:52.476Z,21.52
2018-03-02T12:13:20.459Z,23.17
2018-03-02T12:15:51.492Z,21.10
2018-03-02T12:18:35.078Z,21.70
2018-03-02T12:21:02.471Z,21.17
2018-03-02T12:23:29.256Z,23.52
2018-03-02T12:25:55.995Z,23.20
2018-03-02T12:28:23.333Z,19.62
2018-03-02T12:30:50.075Z,22.27
2018-03-02T12:33:16.873Z,19.50
2018-03-02T12:35:44.305Z,21.02
2018-03-02T12:38:11.235Z,21.60
2018-03-02T12:40:38.114Z,22.13
2018-03-02T12:43:04.960Z,21.25
2018-03-02T12:45:31.882Z,21.23
2018-03-02T12:47:58.656Z,21.12
2018-03-02T12:50:25.482Z,23.95
2018-03-02T12:52:52.309Z,23.23
2018-03-02T12:55:19.193Z,21.17
2018-03-02T12:57:46.113Z,22.60
2018-03-02T13:00:13.178Z,20.50
2018-03-02T13:02:40.080Z,25.27
2018-03-02T13:05:06.815Z,22.37
2018-03-02T13:07:33.725Z,22.10
2018-03-02T13:10:00.865Z,23.62
2018-03-02T13:12:28.373Z,21.73
2018-03-02T13:14:55.293Z,21.30
2018-03-02T13:17:22.106Z,21.80
2018-03-02T13:19:49.092Z,22.20
2018-03-02T13:22:21.915Z,23.05
2018-03-02T13:24:48.996Z,22.70
2018-03-02T13:27:21.855Z,22.45
2018-03-02T13:29:48.819Z,20.95
2018-03-02T13:32:15.563Z,20.60
2018-03-02T13:34:48.631Z,22.62
2018-03-02T13:37:15.557Z,21.87
2018-03-02T13:39:48.275Z,24.15
2018-03-02T13:42:15.032Z,23.30
2018-03-02T13:44:41.874Z,23.62
2018-03-02T13:47:08.765Z,22.83
2018-03-02T13:49:41.740Z,22.85
2018-03-02T13:52:08.794Z,23.70
2018-03-02T13:54:35.906Z,23.08
2018-03-02T13:57:08.579Z,22.67
2018-03-02T13:59:35.350Z,22.08
2018-03-02T14:02:02.109Z,21.37
2018-03-02T14:04:35.120Z,22.15
2018-03-02T14:07:01.952Z,23.12
2018-03-02T14:09:28.836Z,23.45
2018-03-02T14:11:55.583Z,21.80
2018-03-02T14:14:22.580Z,23.62
2018-03-02T14:16:49.441Z,22.13
2018-03-02T14:19:16.322Z,22.25
2018-03-02T14:21:43.223Z,21.92
2018-03-02T14:24:10.335Z,23.85
2018-03-02T14:26:37.053Z,23.05
2018-03-02T14:29:04.009Z,23.83
2018-03-02T14:31:30.829Z,22.33
2018-03-02T14:33:58.700Z,23.17
2018-03-02T14:36:25.561Z,22.95
2018-03-02T14:38:52.275Z,23.00
2018-03-02T14:41:19.233Z,25.40
2018-03-02T14:43:46.832Z,24.67
2018-03-02T14:46:13.773Z,25.05
2018-03-02T14:48:40.569Z,24.12
2018-03-02T14:51:07.564Z,24.00
2018-03-02T14:53:34.738Z,24.35
2018-03-02T14:56:01.628Z,23.05
2018-03-02T14:58:28.448Z,22.50
2018-03-02T15:00:55.455Z,24.83
2018-03-02T15:03:22.388Z,25.40
2018-03-02T15:05:49.520Z,21.87
2018-03-02T15:08:16.292Z,25.02
2018-03-02T15:10:43.049Z,24.45
2018-03-02T15:13:10.058Z,26.60
2018-03-02T15:15:36.792Z,24.65
2018-03-02T15:18:03.723Z,26.48
2018-03-02T15:20:30.685Z,24.98
2018-03-02T15:22:57.697Z,24.45
2018-03-02T15:25:24.445Z,24.02
2018-03-02T15:27:51.342Z,27.92
2018-03-02T15:30:18.154Z,24.42
2018-03-02T15:32:44.882Z,26.60
2018-03-02T15:35:11.667Z,26.05
2018-03-02T15:37:38.650Z,26.87
2018-03-02T15:40:05.456Z,24.30
2018-03-02T15:42:32.458Z,25.17
2018-03-02T15:44:59.239Z,24.60
2018-03-02T15:47:26.195Z,26.02
2018-03-02T15:49:52.961Z,23.60
2018-03-02T15:52:19.697Z,25.12
2018-03-02T15:54:46.504Z,23.75
2018-03-02T15:57:13.638Z,23.87
2018-03-02T15:59:40.533Z,24.30
2018-03-02T16:02:07.384Z,24.35
2018-03-02T16:04:34.287Z,25.30
2018-03-02T16:07:01.158Z,24.02
2018-03-02T16:09:28.099Z,25.95
2018-03-02T16:11:55.014Z,22.50
2018-03-02T16:14:22.136Z,24.05
2018-03-02T16:16:49.471Z,23.17
2018-03-02T16:19:16.295Z,21.77
2018-03-02T16:21:43.137Z,21.05
2018-03-02T16:24:10.272Z,22.92
2018-03-02T16:26:36.959Z,23.92
2018-03-02T16:29:03.651Z,22.45
2018-03-02T16:31:30.458Z,21.80
2018-03-02T16:33:57.303Z,23.27
2018-03-02T16:36:24.108Z,22.77
2018-03-02T16:38:51.009Z,21.30
2018-03-02T16:41:17.796Z,24.00
2018-03-02T16:43:44.556Z,24.83
2018-03-02T16:46:11.367Z,21.65
2018-03-02T16:48:38.118Z,23.75
2018-03-02T16:51:04.830Z,24.00
2018-03-02T16:53:32.462Z,20.85
2018-03-02T16:55:59.267Z,22.92
2018-03-02T16:58:26.160Z,22.87
2018-03-02T17:00:52.891Z,22.30
2018-03-02T17:03:19.634Z,22.67
2018-03-02T17:05:46.410Z,23.27
2018-03-02T17:08:13.190Z,23.67
2018-03-02T17:10:40.024Z,22.92
2018-03-02T17:13:07.500Z,25.20
2018-03-02T17:15:39.051Z,21.20
2018-03-02T17:18:05.789Z,24.50
2018-03-02T17:20:32.527Z,23.85
2018-03-02T17:22:59.534Z,21.87
2018-03-02T17:25:26.316Z,22.25
2018-03-02T17:27:53.139Z,23.58
2018-03-02T17:30:20.129Z,23.45
2018-03-02T17:32:46.987Z,22.33
2018-03-02T17:35:13.862Z,24.30
2018-03-02T17:37:40.890Z,21.98
2018-03-02T17:40:08.300Z,24.10
2018-03-02T17:42:36.482Z,22.87
2018-03-02T17:45:03.284Z,23.67
2018-03-02T17:47:30.549Z,24.40
2018-03-02T17:49:58.013Z,23.98
2018-03-02T17:52:26.310Z,24.30
2018-03-02T17:54:53.202Z,22.50
2018-03-02T17:57:21.143Z,24.85
2018-03-02T17:59:48.857Z,23.17
2018-03-02T18:02:16.877Z,21.95
2018-03-02T18:04:48.725Z,25.25
2018-03-02T18:07:17.737Z,21.95
2018-03-02T18:09:45.438Z,24.48
2018-03-02T18:12:12.590Z,21.37
2018-03-02T18:14:39.559Z,24.02
2018-03-02T18:17:09.048Z,22.05
2018-03-02T18:19:38.942Z,23.45
2018-03-02T18:22:06.360Z,23.70
2018-03-02T18:24:33.399Z,24.83
2018-03-02T18:27:00.388Z,22.00
2018-03-02T18:29:27.885Z,23.65
2018-03-02T18:31:54.835Z,23.42
2018-03-02T18:34:21.654Z,23.38
2018-03-02T18:36:49.246Z,24.30
2018-03-02T18:39:16.311Z,23.02
2018-03-02T18:41:43.752Z,25.05
2018-03-02T18:44:14.620Z,26.98
2018-03-02T18:46:43.387Z,23.95
2018-03-02T18:49:10.373Z,21.80
2018-03-02T18:51:37.392Z,24.17
2018-03-02T18:54:04.908Z,23.10
2018-03-02T18:56:40.142Z,25.83
2018-03-02T18:59:13.340Z,23.52
2018-03-02T19:01:41.728Z,23.02
2018-03-02T19:04:08.882Z,25.25
2018-03-02T19:06:35.676Z,26.58
2018-03-02T19:09:10.564Z,27.55
2018-03-02T19:11:39.115Z,24.70
2018-03-02T19:14:05.975Z,25.50
2018-03-02T19:16:33.115Z,22.65
2018-03-02T19:19:00.840Z,25.95
2018-03-02T19:21:35.218Z,22.35
2018-03-02T19:24:35.129Z,22.90
2018-03-02T19:27:30.897Z,23.15
2018-03-02T19:29:58.320Z,23.33
2018-03-02T19:32:25.035Z,24.67
2018-03-02T19:34:52.683Z,24.50
2018-03-02T19:37:20.965Z,22.67
2018-03-02T19:39:47.927Z,22.92
2018-03-02T19:42:18.994Z,25.17
2018-03-02T19:44:50.270Z,24.98
2018-03-02T19:47:21.131Z,25.42
2018-03-02T19:49:52.723Z,25.45
2018-03-02T19:52:20.400Z,25.20
2018-03-02T19:54:47.432Z,23.10
2018-03-02T19:57:14.217Z,25.02
2018-03-02T19:59:50.014Z,23.10
2018-03-02T20:02:16.725Z,25.45
2018-03-02T20:04:44.912Z,24.90
2018-03-02T20:07:21.523Z,24.60
2018-03-02T20:09:48.492Z,24.55
2018-03-02T20:12:19.680Z,25.33
2018-03-02T20:14:46.617Z,25.05
2018-03-02T20:17:14.124Z,23.02
2018-03-02T20:19:42.544Z,24.95
2018-03-02T20:22:09.285Z,23.58
2018-03-02T20:24:40.327Z,25.25
2018-03-02T20:27:07.880Z,24.27
2018-03-02T20:29:35.696Z,24.83
2018-03-02T20:32:04.526Z,23.83
2018-03-02T20:34:40.024Z,23.48
2018-03-02T20:37:10.236Z,23.73
2018-03-02T20:39:36.999Z,24.42
2018-03-02T20:42:03.920Z,23.75
2018-03-02T20:44:50.505Z,23.73
2018-03-02T20:47:17.326Z,24.85
2018-03-02T20:49:46.160Z,24.55
2018-03-02T20:52:12.944Z,23.48
2018-03-02T20:54:39.597Z,26.10
2018-03-02T20:57:09.209Z,24.02
2018-03-02T20:59:41.165Z,23.12
2018-03-02T21:02:12.919Z,24.65
2018-03-02T21:04:40.418Z,25.58
2018-03-02T21:07:07.209Z,23.00
2018-03-02T21:09:33.992Z,24.65
2018-03-02T21:12:04.909Z,23.30
2018-03-02T21:14:34.947Z,22.23
2018-03-02T21:17:03.325Z,23.83
2018-03-02T21:19:30.064Z,21.90
2018-03-02T21:22:00.784Z,22.83
2018-03-02T21:24:28.414Z,22.55
2018-03-02T21:26:55.187Z,23.60
2018-03-02T21:29:30.098Z,22.58
2018-03-02T21:32:03.409Z,22.85
2018-03-02T21:34:31.643Z,22.98
2018-03-02T21:36:58.324Z,22.33
2018-03-02T21:39:29.213Z,23.87
2018-03-02T21:41:55.972Z,22.27
2018-03-02T21:44:28.580Z,24.52
2018-03-02T21:46:59.195Z,23.55
2018-03-02T21:49:26.617Z,24.85
2018-03-02T21:52:05.896Z,24.35
2018-03-02T21:54:36.419Z,22.13
2018-03-02T21:57:03.197Z,23.08
2018-03-02T21:59:31.244Z,23.15
2018-03-02T22:02:02.232Z,20.10
2018-03-02T22:04:29.041Z,20.75
2018-03-02T22:06:55.884Z,22.87
2018-03-02T22:09:24.106Z,21.20
2018-03-02T22:11:50.849Z,23.33
2018-03-02T22:14:23.245Z,21.45
2018-03-02T22:16:54.605Z,24.75
2018-03-02T22:19:21.370Z,23.12
2018-03-02T22:21:48.507Z,23.52
2018-03-02T22:24:21.160Z,21.25
2018-03-02T22:26:47.848Z,22.98
2018-03-02T22:29:14.569Z,24.85
2018-03-02T22:31:42.742Z,22.60
2018-03-02T22:34:13.235Z,20.73
2018-03-02T22:36:40.715Z,23.00
2018-03-02T22:39:07.412Z,23.35
2018-03-02T22:41:34.111Z,24.10
2018-03-02T22:44:04.673Z,23.77
2018-03-02T22:46:35.349Z,22.58
2018-03-02T22:49:06.365Z,21.62
2018-03-02T22:51:33.067Z,20.88
2018-03-02T22:54:02.652Z,21.15
2018-03-02T22:56:29.345Z,23.55
2018-03-02T22:58:56.350Z,23.25
2018-03-02T23:01:26.878Z,22.60
2018-03-02T23:04:10.065Z,22.23
2018-03-02T23:06:41.655Z,21.87
2018-03-02T23:09:11.337Z,22.17
2018-03-02T23:11:38.095Z,20.48
2018-03-02T23:14:05.780Z,21.90
2018-03-02T23:16:34.584Z,22.65
2018-03-02T23:19:01.472Z,22.95
2018-03-02T23:21:33.427Z,20.33
2018-03-02T23:24:04.039Z,21.52
2018-03-02T23:26:30.700Z,20.90
2018-03-02T23:28:58.129Z,20.45
2018-03-02T23:31:28.646Z,22.02
2018-03-02T23:33:55.955Z,22.20
2018-03-02T23:36:26.772Z,20.77
2018-03-02T23:38:53.585Z,20.55
2018-03-02T23:41:20.284Z,21.92
2018-03-02T23:43:47.537Z,20.50
2018-03-02T23:46:14.240Z,21.42
2018-03-02T23:48:40.912Z,22.02
2018-03-02T23:51:08.749Z,21.00
2018-03-02T23:53:35.416Z,20.95
2018-03-02T23:56:02.744Z,20.92
2018-03-02T23:58:29.389Z,23.45
